Nearby METAR Reports

 

GCLP - Las Palmas/Gando, Spain
Distance from station: NE 26km
Updated: 19/09/2019 02:30
Few Clouds
Few Clouds
 Wind from N
Wind: N 30 km/h
Temperature: 22°C
Dew Point: 18°C
Humidity: 78%
Barometer: 1016 hPa
Clouds: Few Clouds
Visibility: 10 km
Cloud details: Few Clouds 732 m
2019/09/19 02:30 GCLP 190230Z 01016KT 9999 FEW024 22/18 Q1016 NOSIG
GCTS - Tenerife Sur/Rei, Spain
Distance from station: WNW 102km
Updated: 19/09/2019 02:30
Few Clouds
Few Clouds
 Wind from NNE
Wind: NNE 9 km/h
Temperature: 21°C
Dew Point: 17°C
Humidity: 78%
Barometer: 1017 hPa
Clouds: Few Clouds
Visibility: 10 km
Cloud details: Few Clouds 762 m
2019/09/19 02:30 GCTS 190230Z 03005KT 360V060 9999 FEW025 21/17 Q1017 NOSIG
 
GCXO - Tenerife/Los Rod, Spain
Distance from station: NW 110km
Updated: 19/09/2019 02:30
Partly cloudy
Partly cloudy
 Wind from W
Wind: W 19 km/h
Temperature: 17°C
Dew Point: 16°C
Humidity: 94%
Barometer: 1019 hPa
Clouds: Partly cloudy
Visibility: 10 km
Cloud details: Partly cloudy 91 m
Partly cloudy 244 m
2019/09/19 02:30 GCXO 190230Z AUTO 28010KT 9999 SCT003 SCT008 17/16 Q1019
GCGM - La Gomera Arpt, Spain
Distance from station: W 164km
Updated: 19/09/2019 02:30
Clear
Clear
 Wind from varies
Wind: varies 2 km/h
Temperature: 20°C
Dew Point: 17°C
Humidity: 83%
Barometer: 1017 hPa
Clouds: Clear
Visibility: 10 km
2019/09/19 02:30 GCGM 190230Z AUTO VRB01KT 9999 NCD 20/17 Q1017 RMK R09/VRB01KT ARP/00000KT
 
GCFV - Fuerteventura Ar, Spain
Distance from station: ENE 183km
Updated: 19/09/2019 02:30
Overcast
Overcast
 Wind from NNE
Wind: NNE 26 km/h
Temperature: 22°C
Dew Point: 19°C
Humidity: 83%
Barometer: 1016 hPa
Clouds: Overcast
Visibility: 10 km
Cloud details: Overcast 579 m
2019/09/19 02:30 GCFV 190230Z AUTO 03014KT 9999 OVC019 22/19 Q1016
GCHI - Hierro Airport, Spain
Distance from station: W 226km
Updated: 19/09/2019 02:30
Mostly cloudy
Mostly cloudy
 Wind from N
Wind: N 26 km/h
Temperature: 23°C
Dew Point: 19°C
Humidity: 78%
Barometer: 1017 hPa
Clouds: Mostly cloudy
Visibility: 10 km
Cloud details: Few Clouds 640 m
Partly cloudy 792 m
Mostly cloudy 945 m
2019/09/19 02:30 GCHI 190230Z AUTO 35014KT 9999 FEW021 SCT026 BKN031 23/19 Q1017
 
GCLA - La Palma Airport, Spain
Distance from station: WNW 233km
Updated: 19/09/2019 02:30
Mostly cloudy
Mostly cloudy
 Wind from N
Wind: N 15 km/h
Temperature: 22°C
Dew Point: 16°C
Humidity: 69%
Barometer: 1018 hPa
Clouds: Mostly cloudy
Visibility: 10 km
Cloud details: Few Clouds 823 m
Mostly cloudy 1067 m
2019/09/19 02:30 GCLA 190230Z AUTO 36008KT 9999 FEW027 BKN035 22/16 Q1018
GCRR - Arrecife/Lanzaro, Spain
Distance from station: NE 234km
Updated: 19/09/2019 02:30
Clear
Clear
 Wind from NNE
Wind: NNE 13 km/h
Temperature: 20°C
Dew Point: 18°C
Humidity: 88%
Barometer: 1016 hPa
Clouds: Clear
Visibility: 10 km
2019/09/19 02:30 GCRR 190230Z AUTO 02007KT 9999 NCD 20/18 Q1016
 
LPMA - Funchal/Madeira, Portugal
Distance from station: NNW 556km
Updated: 19/09/2019 02:30
Partly cloudy
Partly cloudy
 Wind from NW
Wind: NW 6 km/h
Temperature: 22°C
Dew Point: 18°C
Humidity: 78%
Barometer: 1018 hPa
Clouds: Partly cloudy
Visibility: 10 km
Cloud details: Partly cloudy 457 m
2019/09/19 02:30 LPMA 190230Z 32003KT 9999 SCT015 22/18 Q1018
LPPS - Porto Santo Isla, Portugal
Distance from station: N 594km
Updated: 19/09/2019 02:30
Few Clouds
Few Clouds
 Wind from N
Wind: N 4 km/h
Temperature: 20°C
Dew Point: 17°C
Humidity: 83%
Barometer: 1018 hPa
Clouds: Few Clouds
Visibility: 10 km
Cloud details: Few Clouds 457 m
2019/09/19 02:30 LPPS 190230Z 35002KT 9999 FEW015 20/17 Q1018